Flight Track Log - Related Links

Times and Time Zones

All times are in EDT time to prevent confusion due to time zone crossing. See the N10933 flight status page for this flight to view local times or setup timezone preferences in your user account.

Time Position Orientation Groundspeed Altitude Reporting Facility
EDT Latitude Longitude Course Direction KTS MPH feet Rate Location/Type
Mon 01:50:02 PM 46.4611 -67.3161 248° West 186 214 12,600  Level Boston Center
Mon 01:52:00 PM 46.4338 -67.4053 246° West  Level FlightAware Approximate
Mon 01:54:04 PM 46.3667 -67.6000 246° West 190 219 12,600  Level Moncton Center
Mon 01:55:00 PM 46.3101 -67.8080 248° West  Level Estimated
Mon 01:55:04 PM 46.3500 -67.6667 250° West 180 207 12,600  Level Moncton Center
Mon 01:56:02 PM 46.3342 -67.7217 247° West 181 208 12,600  Level Boston Center
Mon 01:57:02 PM 46.3139 -67.7864 246° West 181 208 12,600  Level Boston Center
Mon 01:59:00 PM 46.3358 -67.7219 246° West  Level FlightAware Approximate
Mon 01:59:04 PM 46.2500 -67.9333 238° Southwest 190 219 12,600  Level Moncton Center
Mon 02:01:02 PM 46.2306 -68.0544 257° West 181 208 12,600  Level Boston Center
Mon 02:04:00 PM 46.2031 -68.1414 246° West  Level FlightAware Approximate
Mon 02:05:02 PM 46.1444 -68.3250 246° West 181 208 12,600  Level Boston Center
Mon 02:06:02 PM 46.1239 -68.3922 246° West 181 208 12,600  Level Boston Center
Mon 02:07:02 PM 46.1033 -68.4597 246° West 181 208 12,600  Level Boston Center
Mon 02:09:04 PM 46.0500 -68.6167 244° Southwest 190 219 12,600  Level Moncton Center
Mon 02:10:04 PM 46.0167 -68.6667 226° Southwest 180 207 12,600  Level Moncton Center
Mon 02:11:02 PM 46.0125 -68.7381 265° West 181 208 12,600  Level Boston Center
Mon 02:13:02 PM 45.9689 -68.8692 244° Southwest 181 208 12,600  Level Boston Center
Mon 02:14:02 PM 45.9481 -68.9392 247° West 186 214 12,600  Level Boston Center
Mon 02:15:02 PM 45.9250 -69.0064 244° Southwest 186 214 12,600 -50 Level Boston Center
Mon 02:16:02 PM 45.9042 -69.0761 247° West 186 214 12,500 -50 Descending Boston Center
Mon 02:17:02 PM 45.8808 -69.1403 242° Southwest 186 214 12,500 50 Level Boston Center
Mon 02:18:02 PM 45.8600 -69.2069 246° West 186 214 12,600 50 Climbing Boston Center
Mon 02:19:02 PM 45.8386 -69.2708 244° Southwest 186 214 12,600  Level Boston Center
Mon 02:21:02 PM 45.7964 -69.4042 246° West 181 208 12,600  Level Boston Center
Mon 02:22:04 PM 45.7667 -69.4667 236° Southwest 180 207 12,600  Level Moncton Center
Mon 02:23:04 PM 45.7333 -69.5500 240° Southwest 180 207 12,600  Level Moncton Center
Mon 02:24:04 PM 45.7167 -69.6000 244° Southwest 180 207 12,600 50 Level Moncton Center
Mon 02:25:04 PM 45.7000 -69.6667 250° West 180 207 12,700 34 Climbing Moncton Center
Mon 02:27:02 PM 45.6644 -69.8031 250° West 181 208 12,700  Level Boston Center
Mon 02:28:02 PM 45.6411 -69.8694 243° Southwest 181 208 12,700 -50 Level Boston Center
Mon 02:29:02 PM 45.6175 -69.9358 243° Southwest 181 208 12,600  Descending Boston Center
Mon 02:30:02 PM 45.5958 -69.9992 244° Southwest 181 208 12,700 33 Climbing Boston Center
Mon 02:32:02 PM 45.5547 -70.1225 245° Southwest 181 208 12,700 -25 Level Boston Center
Mon 02:34:02 PM 45.5092 -70.2517 243° Southwest 181 208 12,600  Descending Boston Center
Mon 02:35:02 PM 45.4875 -70.3147 244° Southwest 181 208 12,700 50 Climbing Boston Center
Mon 02:36:02 PM 45.4658 -70.3806 245° Southwest 181 208 12,700  Level Boston Center
Mon 02:37:02 PM 45.4419 -70.4436 242° Southwest 181 208 12,700  Level Boston Center
Mon 02:38:02 PM 45.4181 -70.5094 243° Southwest 181 208 12,700 -300 Level Boston Center
Mon 02:40:02 PM 45.3744 -70.6439 245° Southwest 181 208 11,800 -406 Descending Boston Center
Mon 02:41:14 PM 45.3464 -70.7275 245° Southwest 186 214 11,400 -250 Descending Boston Center
Mon 02:43:00 PM 45.2786 -70.7735 205° Southwest  Level FlightAware Approximate
Mon 02:43:14 PM 45.2983 -70.8644 205° Southwest 191 220 11,000  Level Boston Center
Mon 02:44:14 PM 45.2722 -70.9272 239° Southwest 196 226 11,000 -200 Level Boston Center
Mon 02:45:14 PM 45.2522 -70.9925 247° West 196 226 10,600 -300 Descending Boston Center
Mon 02:46:14 PM 45.2281 -71.0608 243° Southwest 196 226 10,400 -250 Descending Boston Center
Mon 02:47:14 PM 45.2061 -71.1381 248° West 196 226 10,100 -200 Descending Boston Center
Mon 02:48:14 PM 45.1817 -71.2033 242° Southwest 191 220 10,000 -200 Descending Boston Center
Mon 02:49:14 PM 45.1594 -71.2686 244° Southwest 191 220 9,700 -350 Descending Boston Center
Mon 02:50:14 PM 45.1331 -71.3308 239° Southwest 191 220 9,300 -106 Descending Boston Center
Mon 02:52:04 PM 45.0833 -71.4667 243° Southwest 180 207 9,400 33 Climbing Moncton Center
Mon 02:53:14 PM 45.0658 -71.5172 244° Southwest 181 208 9,400 -92 Level Boston Center
Mon 02:54:14 PM 45.0436 -71.5822 244° Southwest 181 208 9,200 -150 Descending Boston Center
Mon 02:55:14 PM 45.0211 -71.6444 243° Southwest 181 208 9,100 -150 Descending Boston Center
Mon 02:56:14 PM 44.9964 -71.7092 242° Southwest 181 208 8,900 -250 Descending Boston Center
Mon 02:57:14 PM 44.9739 -71.7742 244° Southwest 181 208 8,600 -267 Descending Boston Center
Mon 02:59:00 PM 44.9283 -71.8744 237° Southwest  Level FlightAware Approximate
Mon 02:59:14 PM 44.9267 -71.9006 237° Southwest 181 208 8,100  Level Boston Center
Mon 03:01:00 PM 44.8811 -72.0014 244° Southwest  Level FlightAware Approximate
Mon 03:02:14 PM 44.8586 -72.0886 244° Southwest 181 208 7,600  Level Boston Center
Mon 03:03:14 PM 44.8358 -72.1503 243° Southwest 181 208 7,400 -200 Descending Boston Center
Mon 03:04:14 PM 44.8131 -72.2147 244° Southwest 181 208 7,200 -250 Descending Boston Center
Mon 03:05:14 PM 44.7903 -72.2733 241° Southwest 181 208 6,900 -250 Descending Boston Center
Mon 03:06:14 PM 44.7697 -72.3319 244° Southwest 181 208 6,700 -200 Descending Boston Center
Mon 03:07:14 PM 44.7489 -72.3961 245° Southwest 181 208 6,500  Descending Boston Center
Mon 03:09:14 PM 44.7175 -72.5247 251° West 176 203 6,700 -133 Climbing Boston Center
Mon 03:10:14 PM 44.7050 -72.5919 255° West 176 203 6,100 -550 Descending Boston Center
Mon 03:11:14 PM 44.6925 -72.6619 256° West 181 208 5,600 -400 Descending Boston Center
Mon 03:12:14 PM 44.6797 -72.7292 255° West 181 208 5,300 -500 Descending Boston Center
Mon 03:13:14 PM 44.6650 -72.7992 254° West 181 208 4,600 -550 Descending Boston Center
Mon 03:14:14 PM 44.6500 -72.8631 252° West 181 208 4,200 -600 Descending Boston Center
Mon 03:15:14 PM 44.6333 -72.9272 250° West 181 208 3,400 -633 Descending Boston Center
Mon 03:17:14 PM 44.5869 -73.0406 240° Southwest 176 203 2,300 -433 Descending Boston Center
Mon 03:18:14 PM 44.5617 -73.0928 236° Southwest 168 193 2,100 -267 Descending Boston Center
Mon 03:20:14 PM 44.5156 -73.1475 220° Southwest 119 137 1,500 -425 Descending Boston Center
Mon 03:22:14 PM 44.4694 -73.1528 185° South 82 94 400 -550 Descending Boston Center
Mon 03:24:00 PM 44.4719 -73.1533 352° North  Level Estimated
Mon 03:31:00 PM 44.4719 -73.1533 55° Northeast  Level Estimated
Mon 03:32:00 PM 44.4719 -73.1533 55° Northeast  Level Estimated
Mon 03:33:00 PM 44.4719 -73.1533 55° Northeast  Level Estimated
Mon 03:34:00 PM 44.4719 -73.1533 55° Northeast  Level Estimated
Mon 03:35:00 PM 44.4719 -73.1533 55° Northeast  Level Estimated
Mon 03:36:00 PM 44.4719 -73.1533 55° Northeast  Level Estimated
Mon 03:37:00 PM 44.4719 -73.1533 55° Northeast  Level Estimated
Mon 03:38:00 PM 44.4719 -73.1533 55° Northeast  Level Estimated
Mon 03:39:00 PM 44.4719 -73.1533 55° Northeast  Level Estimated

Login

Don't have an account? Register now (free) for customized features, flight alerts, and more!